KDXR Airport (Danbury Muni) Information

FAA: DXR - ICAO: KDXR

KDXR Airport Location

State Connecticut
County Fairfield
City Danbury
KDXR Airport is 3 miles southwest of Danbury, CT.
Latitude 41-22-17.5000N
Longitude 073-28-55.9000W
Elevation 456ft

KDXR Airport METARs

METAR KDXR 070753Z AUTO 28008G16KT 10SM CLR 04/M07 A2995 RMK AO2 SLP144 T00391072
Altimeter 29.95"
Temperature 3.9°C (39.0°F)
Wind 280° at 8KT with gusts to 16KT
Clouds Skies are clear.
Visibility 10.0mi
Time observed: 2021-12-07T07:53:00Z

KDXR Airport Details

Status Operational
Activation April 1940
Ownership Public
Usage Public
Chart NEW YORK
ATC on-site Yes
Beacon schedule sunset-sunrise
Beacon color clear green

KDXR Airport Contacts

Owner CITY OF DANBURY
Owner address CITY HALL, DANBURY, CT 06810
Owner phone 203-797-4624
Manager JIM SKI
Manager address 31 CHESTNUT HILL RD, COLCHESTER, CT 06415
Manager phone (860) 334-3974

KDXR Airport (Danbury Muni) Radio Frequencies

KDXR (Airport) Radio Frequencies

UNICOM 122.95
Common traffic advisory frequency (CTAF) 119.4